createdAt,value
2022-10-07T00:01:12.572Z,3.20
2022-10-07T00:03:41.941Z,3.00
2022-10-07T00:06:14.492Z,3.10
2022-10-07T00:08:45.147Z,3.00
2022-10-07T00:11:17.058Z,3.70
2022-10-07T00:13:47.260Z,5.95
2022-10-07T00:16:17.476Z,8.20
2022-10-07T00:18:46.249Z,6.38
2022-10-07T00:21:16.510Z,4.80
2022-10-07T00:23:45.829Z,4.70
2022-10-07T00:26:18.514Z,4.22
2022-10-07T00:28:47.471Z,4.07
2022-10-07T00:31:17.697Z,3.55
2022-10-07T00:33:46.616Z,3.58
2022-10-07T00:36:18.791Z,3.50
2022-10-07T00:38:50.975Z,2.90
2022-10-07T00:41:23.306Z,3.07
2022-10-07T00:43:51.463Z,2.90
2022-10-07T00:46:29.381Z,2.42
2022-10-07T00:48:59.310Z,2.90
2022-10-07T00:51:28.073Z,2.92
2022-10-07T00:53:57.195Z,2.60
2022-10-07T00:56:28.075Z,2.60
2022-10-07T00:58:58.875Z,2.97
2022-10-07T01:01:27.810Z,3.00
2022-10-07T01:03:56.276Z,3.00
2022-10-07T01:06:26.516Z,2.90
2022-10-07T01:08:55.630Z,2.70
2022-10-07T01:11:37.855Z,2.70
2022-10-07T01:14:11.872Z,2.53
2022-10-07T01:16:48.122Z,2.60
2022-10-07T01:19:37.761Z,2.67
2022-10-07T01:22:20.428Z,2.38
2022-10-07T01:25:01.133Z,2.80
2022-10-07T01:27:31.211Z,2.30
2022-10-07T01:30:03.627Z,2.00
2022-10-07T01:32:36.925Z,2.60
2022-10-07T01:35:11.114Z,1.90
2022-10-07T01:37:45.602Z,2.10
2022-10-07T01:40:17.599Z,1.70
2022-10-07T01:42:47.572Z,2.20
2022-10-07T01:45:21.381Z,2.00
2022-10-07T01:47:50.383Z,1.90
2022-10-07T01:50:21.805Z,2.05
2022-10-07T01:53:04.059Z,2.20
2022-10-07T01:55:51.626Z,2.40
2022-10-07T01:58:34.151Z,1.70
2022-10-07T02:01:13.161Z,1.63
2022-10-07T02:04:08.660Z,2.10
2022-10-07T02:06:43.443Z,1.38
2022-10-07T02:09:20.079Z,1.90
2022-10-07T02:11:57.571Z,1.50
2022-10-07T02:14:38.604Z,1.80
2022-10-07T02:17:13.366Z,1.50
2022-10-07T02:19:48.510Z,1.80
2022-10-07T02:22:19.441Z,1.77
2022-10-07T02:24:49.317Z,2.00
2022-10-07T02:27:21.220Z,1.95
2022-10-07T02:29:57.345Z,1.97
2022-10-07T02:32:28.616Z,1.42
2022-10-07T02:35:03.126Z,1.70
2022-10-07T02:37:35.181Z,1.97
2022-10-07T02:40:12.241Z,1.65
2022-10-07T02:42:54.924Z,1.63
2022-10-07T02:45:32.148Z,1.70
2022-10-07T02:48:04.344Z,2.00
2022-10-07T02:50:41.082Z,2.00
2022-10-07T02:53:13.534Z,1.60
2022-10-07T02:55:43.582Z,2.20
2022-10-07T02:58:14.035Z,1.70
2022-10-07T03:00:51.003Z,1.63
2022-10-07T03:03:19.568Z,1.50
2022-10-07T03:06:05.402Z,1.70
2022-10-07T03:08:34.815Z,1.80
2022-10-07T03:11:04.723Z,2.23
2022-10-07T03:13:35.095Z,1.73
2022-10-07T03:16:06.575Z,1.65
2022-10-07T03:18:35.132Z,1.95
2022-10-07T03:21:10.978Z,1.85
2022-10-07T03:23:39.334Z,1.80
2022-10-07T03:26:07.776Z,2.20
2022-10-07T03:28:37.287Z,1.88
2022-10-07T03:31:10.057Z,1.75
2022-10-07T03:33:42.076Z,1.70
2022-10-07T03:36:11.187Z,1.70
2022-10-07T03:38:42.773Z,1.50
2022-10-07T03:41:12.754Z,1.60
2022-10-07T03:43:41.302Z,1.70
2022-10-07T03:46:12.502Z,1.40
2022-10-07T03:48:41.829Z,1.50
2022-10-07T03:51:10.041Z,1.80
2022-10-07T03:53:40.122Z,1.17
2022-10-07T03:56:08.682Z,1.80
2022-10-07T03:58:38.347Z,1.80
2022-10-07T04:01:13.645Z,2.40
2022-10-07T04:03:48.139Z,1.60
2022-10-07T04:06:17.623Z,1.50
2022-10-07T04:08:46.362Z,1.70
2022-10-07T04:11:14.761Z,1.80
2022-10-07T04:13:45.392Z,2.15
2022-10-07T04:16:15.909Z,2.07
2022-10-07T04:18:44.552Z,2.10
2022-10-07T04:21:13.546Z,1.95
2022-10-07T04:23:43.145Z,1.83
2022-10-07T04:26:13.990Z,1.80
2022-10-07T04:28:46.377Z,1.60
2022-10-07T04:31:21.335Z,1.90
2022-10-07T04:33:55.870Z,1.70
2022-10-07T04:36:29.148Z,1.60
2022-10-07T04:39:05.432Z,1.60
2022-10-07T04:41:37.255Z,1.80
2022-10-07T04:44:09.548Z,1.60
2022-10-07T04:46:46.133Z,1.45
2022-10-07T04:49:16.260Z,2.30
2022-10-07T04:51:44.408Z,2.17
2022-10-07T04:54:12.957Z,1.70
2022-10-07T04:56:49.901Z,1.90
2022-10-07T04:59:23.486Z,1.67
2022-10-07T05:01:54.472Z,1.50
2022-10-07T05:04:23.966Z,1.63
2022-10-07T05:06:53.631Z,1.80
2022-10-07T05:09:21.872Z,1.73
2022-10-07T05:11:50.121Z,1.92
2022-10-07T05:14:21.786Z,1.90
2022-10-07T05:16:53.998Z,2.50
2022-10-07T05:19:25.926Z,2.80
2022-10-07T05:21:55.205Z,2.42
2022-10-07T05:24:24.214Z,2.50
2022-10-07T05:26:52.802Z,2.50
2022-10-07T05:29:21.149Z,2.50
2022-10-07T05:31:54.165Z,2.60
2022-10-07T05:34:25.626Z,2.17
2022-10-07T05:36:55.525Z,2.28
2022-10-07T05:39:24.810Z,2.50
2022-10-07T05:41:57.682Z,2.10
2022-10-07T05:44:32.181Z,2.65
2022-10-07T05:47:04.669Z,2.60
2022-10-07T05:49:33.580Z,2.15
2022-10-07T05:52:03.396Z,2.50
2022-10-07T05:54:33.199Z,2.00
2022-10-07T05:57:02.068Z,2.20
2022-10-07T05:59:31.244Z,2.10
2022-10-07T06:02:00.475Z,2.20
2022-10-07T06:04:32.320Z,2.47
2022-10-07T06:07:01.317Z,2.40
2022-10-07T06:09:49.384Z,2.50
2022-10-07T06:12:36.706Z,2.53
2022-10-07T06:15:10.687Z,2.47
2022-10-07T06:17:45.880Z,2.30
2022-10-07T06:20:20.176Z,2.30
2022-10-07T06:22:50.340Z,2.15
2022-10-07T06:25:20.455Z,2.60
2022-10-07T06:27:54.032Z,2.72
2022-10-07T06:30:23.364Z,2.50
2022-10-07T06:32:51.700Z,2.28
2022-10-07T06:35:21.424Z,3.10
2022-10-07T06:37:51.824Z,2.80
2022-10-07T06:40:20.406Z,2.85
2022-10-07T06:42:48.984Z,2.30
2022-10-07T06:45:32.123Z,2.60
2022-10-07T06:48:01.063Z,3.25
2022-10-07T06:50:32.345Z,3.20
2022-10-07T06:53:04.592Z,2.55
2022-10-07T06:55:37.544Z,2.95
2022-10-07T06:58:11.392Z,3.90
2022-10-07T07:00:41.266Z,4.10
2022-10-07T07:03:10.314Z,4.05
2022-10-07T07:05:44.449Z,3.80
2022-10-07T07:08:17.645Z,3.60
2022-10-07T07:10:46.920Z,3.33
2022-10-07T07:13:15.991Z,3.40
2022-10-07T07:15:44.327Z,2.90
2022-10-07T07:18:12.755Z,2.73
2022-10-07T07:20:43.158Z,3.25
2022-10-07T07:23:12.027Z,2.70
2022-10-07T07:25:45.937Z,2.75
2022-10-07T07:28:16.643Z,2.40
2022-10-07T07:30:45.778Z,3.38
2022-10-07T07:33:14.557Z,2.63
2022-10-07T07:35:45.081Z,2.60
2022-10-07T07:38:13.339Z,2.43
2022-10-07T07:40:41.642Z,2.55
2022-10-07T07:43:10.216Z,2.50
2022-10-07T07:45:39.029Z,2.60
2022-10-07T07:48:07.330Z,2.35
2022-10-07T07:50:40.621Z,2.47
2022-10-07T07:53:11.008Z,2.30
2022-10-07T07:55:39.460Z,2.40
2022-10-07T07:58:11.765Z,2.27
2022-10-07T08:00:41.030Z,2.30
2022-10-07T08:03:09.605Z,2.70
2022-10-07T08:05:39.294Z,1.90
2022-10-07T08:08:07.527Z,2.30
2022-10-07T08:10:37.197Z,2.10
2022-10-07T08:13:05.494Z,1.75
2022-10-07T08:15:33.747Z,2.50
2022-10-07T08:18:02.961Z,2.25
2022-10-07T08:20:31.343Z,2.00
2022-10-07T08:23:01.093Z,2.10
2022-10-07T08:25:29.951Z,1.60
2022-10-07T08:28:03.493Z,1.70
2022-10-07T08:30:33.725Z,1.77
2022-10-07T08:33:02.964Z,2.30
2022-10-07T08:35:31.020Z,1.80
2022-10-07T08:37:59.134Z,1.90
2022-10-07T08:40:27.416Z,1.70
2022-10-07T08:42:55.741Z,1.50
2022-10-07T08:45:31.828Z,2.35
2022-10-07T08:48:03.616Z,1.60
2022-10-07T08:50:39.556Z,1.48
2022-10-07T08:53:13.474Z,2.00
2022-10-07T08:55:46.006Z,1.52
2022-10-07T08:58:36.059Z,3.42
2022-10-07T09:01:17.673Z,2.38
2022-10-07T09:03:51.481Z,1.70
2022-10-07T09:06:28.258Z,1.60
2022-10-07T09:09:03.284Z,2.07
2022-10-07T09:11:33.682Z,1.70
2022-10-07T09:14:09.789Z,1.70
2022-10-07T09:16:44.152Z,2.10
2022-10-07T09:19:21.760Z,2.50
2022-10-07T09:21:51.479Z,1.85
2022-10-07T09:24:22.928Z,1.70
2022-10-07T09:26:55.143Z,2.40
2022-10-07T09:29:24.919Z,2.00
2022-10-07T09:31:54.605Z,2.10
2022-10-07T09:34:25.097Z,1.52
2022-10-07T09:37:27.494Z,1.70
2022-10-07T09:39:58.356Z,4.97
2022-10-07T09:42:31.450Z,2.20
2022-10-07T09:45:02.926Z,1.38
2022-10-07T09:47:37.270Z,1.30
2022-10-07T09:50:05.770Z,1.45
2022-10-07T09:52:34.178Z,1.40
2022-10-07T09:55:31.589Z,1.13
2022-10-07T09:58:04.526Z,1.17
2022-10-07T10:00:33.233Z,1.58
2022-10-07T10:03:06.496Z,1.58
2022-10-07T10:05:36.988Z,2.60
2022-10-07T10:08:07.992Z,1.20
2022-10-07T10:10:37.419Z,1.80
2022-10-07T10:13:07.178Z,1.70
2022-10-07T10:15:41.840Z,1.70
2022-10-07T10:18:35.132Z,1.40
2022-10-07T10:21:20.074Z,1.48
2022-10-07T10:23:50.172Z,1.85
2022-10-07T10:26:53.940Z,1.70
2022-10-07T10:29:42.884Z,1.98
2022-10-07T10:32:39.351Z,1.50
2022-10-07T10:35:16.901Z,1.75
2022-10-07T10:38:01.249Z,1.70
2022-10-07T10:40:37.146Z,1.50
2022-10-07T10:43:18.033Z,1.00
2022-10-07T10:45:58.910Z,1.40
2022-10-07T10:48:31.951Z,1.40
2022-10-07T10:51:11.806Z,1.20
2022-10-07T10:53:49.750Z,1.40
2022-10-07T10:56:31.867Z,1.40
2022-10-07T10:59:18.018Z,1.45
2022-10-07T11:01:52.846Z,1.35
2022-10-07T11:04:38.441Z,1.30
2022-10-07T11:07:14.699Z,1.70
2022-10-07T11:09:47.563Z,1.20
2022-10-07T11:12:24.974Z,1.80
2022-10-07T11:14:58.142Z,1.40
2022-10-07T11:17:31.694Z,1.43
2022-10-07T11:20:13.819Z,1.10
2022-10-07T11:22:48.946Z,1.38
2022-10-07T11:25:26.567Z,2.08
2022-10-07T11:28:00.422Z,1.85
2022-10-07T11:30:36.847Z,1.30
2022-10-07T11:33:09.185Z,1.40
2022-10-07T11:35:44.270Z,1.20
2022-10-07T11:38:20.075Z,1.50
2022-10-07T11:40:52.253Z,1.42
2022-10-07T11:43:27.529Z,1.60
2022-10-07T11:45:59.081Z,1.87
2022-10-07T11:48:33.478Z,1.50
2022-10-07T11:51:04.611Z,1.30
2022-10-07T11:53:38.456Z,1.10
2022-10-07T11:56:14.326Z,1.20
2022-10-07T11:58:44.221Z,1.73
2022-10-07T12:01:53.399Z,1.50
2022-10-07T12:04:36.867Z,1.55
2022-10-07T12:07:40.914Z,1.10
2022-10-07T12:10:28.771Z,1.40
2022-10-07T12:13:00.401Z,1.30
2022-10-07T12:15:42.451Z,1.40
2022-10-07T12:18:30.974Z,1.50
2022-10-07T12:21:09.696Z,1.92
2022-10-07T12:23:46.093Z,1.60
2022-10-07T12:26:53.772Z,1.77
2022-10-07T12:29:34.225Z,1.88
2022-10-07T12:32:02.667Z,1.50
2022-10-07T12:34:41.142Z,1.85
2022-10-07T12:37:49.980Z,2.10
2022-10-07T12:40:29.745Z,1.92
2022-10-07T12:43:10.432Z,2.10
2022-10-07T12:45:43.459Z,1.80
2022-10-07T12:48:16.567Z,1.17
2022-10-07T12:50:46.826Z,1.40
2022-10-07T12:53:16.413Z,2.10
2022-10-07T12:55:50.085Z,1.48
2022-10-07T12:59:03.998Z,1.50
2022-10-07T13:01:45.405Z,1.40
2022-10-07T13:04:39.610Z,1.60
2022-10-07T13:07:46.108Z,1.60
2022-10-07T13:10:50.117Z,1.20
2022-10-07T13:13:27.083Z,1.67
2022-10-07T13:15:59.885Z,2.00
2022-10-07T13:18:37.357Z,1.65
2022-10-07T13:21:17.147Z,1.70
2022-10-07T13:23:52.051Z,1.50
2022-10-07T13:26:23.219Z,1.80
2022-10-07T13:28:55.516Z,13.10
2022-10-07T13:31:25.562Z,6.68
2022-10-07T13:33:56.632Z,3.28
2022-10-07T13:36:27.793Z,2.63
2022-10-07T13:39:12.009Z,3.13
2022-10-07T13:41:43.808Z,2.30
2022-10-07T13:44:15.743Z,2.13
2022-10-07T13:46:54.350Z,2.00
2022-10-07T13:49:26.588Z,1.63
2022-10-07T13:51:56.981Z,1.70
2022-10-07T13:54:28.929Z,1.63
2022-10-07T13:56:57.442Z,1.70
2022-10-07T13:59:27.205Z,1.40
2022-10-07T14:01:58.146Z,1.77
2022-10-07T14:04:28.879Z,1.92
2022-10-07T14:07:01.050Z,2.10
2022-10-07T14:09:38.861Z,1.70
2022-10-07T14:12:12.772Z,2.20
2022-10-07T14:14:44.189Z,1.77
2022-10-07T14:17:20.437Z,1.58
2022-10-07T14:19:53.452Z,1.45
2022-10-07T14:22:29.298Z,1.30
2022-10-07T14:25:03.053Z,1.88
2022-10-07T14:28:16.207Z,1.58
2022-10-07T14:31:04.236Z,1.77
2022-10-07T14:34:06.596Z,1.60
2022-10-07T14:36:36.101Z,1.65
2022-10-07T14:39:22.678Z,1.50
2022-10-07T14:41:50.930Z,1.90
2022-10-07T14:44:19.093Z,1.67
2022-10-07T14:46:48.586Z,2.10
2022-10-07T14:49:17.757Z,1.77
2022-10-07T14:51:46.257Z,1.85
2022-10-07T14:54:14.399Z,1.88
2022-10-07T14:56:42.608Z,2.00
2022-10-07T14:59:14.823Z,1.40
2022-10-07T15:01:42.981Z,1.48
2022-10-07T15:04:12.516Z,1.55
2022-10-07T15:06:40.775Z,2.00
2022-10-07T15:09:12.869Z,1.60
2022-10-07T15:11:42.422Z,1.90
2022-10-07T15:14:12.049Z,1.75
2022-10-07T15:16:41.694Z,1.50
2022-10-07T15:19:09.947Z,1.70
2022-10-07T15:21:39.572Z,1.90
2022-10-07T15:24:08.022Z,2.30
2022-10-07T15:26:36.128Z,2.30
2022-10-07T15:29:07.988Z,1.42
2022-10-07T15:31:37.966Z,2.20
2022-10-07T15:34:06.364Z,1.40
2022-10-07T15:36:34.493Z,1.25
2022-10-07T15:39:04.048Z,1.50
2022-10-07T15:41:34.699Z,1.63
2022-10-07T15:44:04.895Z,1.30
2022-10-07T15:46:33.336Z,1.60
2022-10-07T15:49:03.635Z,1.60
2022-10-07T15:51:32.137Z,1.40
2022-10-07T15:54:00.420Z,1.50
2022-10-07T15:56:30.115Z,1.50
2022-10-07T15:59:00.537Z,1.80
2022-10-07T16:01:31.859Z,2.13
2022-10-07T16:04:05.964Z,2.05
2022-10-07T16:06:36.837Z,1.30
2022-10-07T16:09:05.760Z,1.67
2022-10-07T16:11:35.932Z,1.60
2022-10-07T16:14:04.734Z,1.20
2022-10-07T16:16:33.911Z,1.80
2022-10-07T16:19:02.711Z,1.20
2022-10-07T16:21:32.038Z,1.80
2022-10-07T16:24:03.286Z,1.80
2022-10-07T16:26:33.852Z,2.00
2022-10-07T16:29:23.186Z,1.60
2022-10-07T16:31:58.028Z,1.30
2022-10-07T16:34:27.729Z,1.70
2022-10-07T16:36:56.872Z,1.83
2022-10-07T16:39:25.378Z,1.60
2022-10-07T16:41:55.038Z,1.70
2022-10-07T16:44:24.825Z,1.52
2022-10-07T16:46:56.844Z,1.80
2022-10-07T16:49:27.652Z,2.00
2022-10-07T16:51:56.377Z,2.22
2022-10-07T16:54:25.258Z,1.73
2022-10-07T16:56:53.987Z,1.93
2022-10-07T16:59:25.005Z,2.20
2022-10-07T17:01:55.599Z,2.00
2022-10-07T17:04:24.849Z,2.33
2022-10-07T17:06:53.680Z,2.50
2022-10-07T17:09:24.592Z,2.47
2022-10-07T17:11:53.142Z,2.55
2022-10-07T17:14:24.281Z,2.90
2022-10-07T17:16:54.649Z,2.70
2022-10-07T17:19:25.074Z,2.80
2022-10-07T17:21:55.001Z,3.33
2022-10-07T17:24:24.386Z,2.72
2022-10-07T17:26:53.494Z,3.30
2022-10-07T17:29:23.237Z,3.40
2022-10-07T17:31:53.201Z,3.40
2022-10-07T17:34:22.380Z,3.50
2022-10-07T17:36:51.337Z,4.03
2022-10-07T17:39:20.072Z,3.90
2022-10-07T17:41:48.551Z,3.90
2022-10-07T17:44:17.068Z,4.20
2022-10-07T17:46:45.407Z,4.78
2022-10-07T17:49:14.972Z,5.00
2022-10-07T17:51:44.240Z,3.90
2022-10-07T17:54:13.878Z,3.90
2022-10-07T17:56:45.368Z,4.45
2022-10-07T17:59:14.293Z,4.70
2022-10-07T18:01:42.881Z,4.78
2022-10-07T18:04:12.877Z,4.38
2022-10-07T18:06:43.287Z,4.93
2022-10-07T18:09:16.578Z,5.00
2022-10-07T18:12:02.428Z,4.47
2022-10-07T18:14:53.292Z,5.03
2022-10-07T18:17:22.549Z,4.70
2022-10-07T18:19:50.668Z,4.70
2022-10-07T18:22:20.387Z,4.18
2022-10-07T18:24:48.712Z,4.10
2022-10-07T18:27:16.864Z,3.67
2022-10-07T18:29:45.242Z,3.50
2022-10-07T18:32:13.359Z,3.70
2022-10-07T18:34:41.441Z,4.10
2022-10-07T18:37:09.597Z,3.67
2022-10-07T18:39:39.113Z,3.65
2022-10-07T18:42:07.657Z,3.63
2022-10-07T18:44:36.250Z,2.97
2022-10-07T18:47:04.957Z,3.70
2022-10-07T18:49:33.091Z,4.18
2022-10-07T18:52:01.253Z,4.10
2022-10-07T18:54:29.537Z,4.10
2022-10-07T18:56:59.037Z,3.92
2022-10-07T18:59:27.359Z,4.00
2022-10-07T19:01:55.481Z,4.28
2022-10-07T19:04:23.842Z,4.20
2022-10-07T19:06:51.927Z,3.90
2022-10-07T19:09:22.258Z,3.67
2022-10-07T19:11:51.053Z,4.40
2022-10-07T19:14:20.189Z,3.78
2022-10-07T19:16:49.973Z,4.30
2022-10-07T19:19:19.864Z,4.28
2022-10-07T19:21:49.265Z,4.85
2022-10-07T19:24:17.696Z,5.15
2022-10-07T19:26:48.394Z,4.45
2022-10-07T19:29:18.033Z,5.03
2022-10-07T19:31:50.115Z,4.90
2022-10-07T19:34:20.945Z,3.80
2022-10-07T19:36:50.700Z,4.18
2022-10-07T19:39:21.720Z,3.55
2022-10-07T19:41:51.153Z,4.47
2022-10-07T19:44:19.853Z,4.07
2022-10-07T19:46:52.462Z,3.70
2022-10-07T19:49:20.850Z,4.30
2022-10-07T19:51:48.863Z,5.70
2022-10-07T19:54:17.010Z,7.40
2022-10-07T19:56:45.468Z,8.20
2022-10-07T19:59:15.286Z,8.60
2022-10-07T20:01:45.312Z,8.63
2022-10-07T20:04:16.584Z,8.73
2022-10-07T20:06:45.271Z,7.50
2022-10-07T20:09:16.067Z,7.47
2022-10-07T20:11:46.706Z,7.63
2022-10-07T20:14:16.139Z,7.20
2022-10-07T20:16:44.533Z,6.82
2022-10-07T20:19:18.751Z,7.68
2022-10-07T20:21:48.209Z,7.57
2022-10-07T20:24:17.852Z,8.25
2022-10-07T20:26:46.532Z,7.90
2022-10-07T20:29:16.542Z,7.93
2022-10-07T20:31:45.102Z,8.13
2022-10-07T20:34:18.389Z,6.90
2022-10-07T20:36:46.546Z,7.40
2022-10-07T20:39:34.558Z,7.15
2022-10-07T20:42:20.194Z,6.95
2022-10-07T20:44:49.593Z,6.10
2022-10-07T20:47:18.428Z,6.50
2022-10-07T20:49:48.799Z,6.40
2022-10-07T20:52:18.693Z,5.80
2022-10-07T20:54:47.765Z,6.50
2022-10-07T20:57:18.061Z,6.30
2022-10-07T20:59:46.220Z,5.60
2022-10-07T21:02:16.596Z,6.23
2022-10-07T21:04:46.901Z,6.03
2022-10-07T21:07:17.672Z,5.10
2022-10-07T21:09:45.914Z,6.60
2022-10-07T21:12:15.825Z,5.90
2022-10-07T21:14:44.338Z,6.80
2022-10-07T21:17:13.466Z,5.40
2022-10-07T21:19:41.817Z,5.05
2022-10-07T21:22:10.524Z,5.50
2022-10-07T21:24:40.070Z,5.00
2022-10-07T21:27:09.111Z,4.73
2022-10-07T21:29:40.738Z,4.10
2022-10-07T21:32:09.430Z,3.97
2022-10-07T21:34:37.684Z,5.15
2022-10-07T21:37:05.982Z,4.40
2022-10-07T21:39:34.139Z,4.55
2022-10-07T21:42:04.199Z,4.40
2022-10-07T21:44:33.477Z,4.70
2022-10-07T21:47:02.264Z,4.40
2022-10-07T21:49:30.445Z,4.70
2022-10-07T21:51:58.631Z,4.53
2022-10-07T21:54:27.468Z,5.07
2022-10-07T21:56:55.609Z,4.30
2022-10-07T21:59:25.178Z,4.13
2022-10-07T22:01:53.367Z,4.70
2022-10-07T22:04:21.633Z,4.00
2022-10-07T22:07:07.349Z,4.50
2022-10-07T22:09:35.876Z,4.00
2022-10-07T22:12:04.026Z,3.75
2022-10-07T22:14:33.471Z,3.45
2022-10-07T22:17:01.588Z,2.80
2022-10-07T22:19:29.708Z,2.85
2022-10-07T22:21:57.808Z,2.70
2022-10-07T22:24:26.062Z,3.53
2022-10-07T22:26:54.217Z,2.60
2022-10-07T22:29:22.897Z,3.10
2022-10-07T22:31:52.457Z,2.50
2022-10-07T22:34:37.885Z,2.80
2022-10-07T22:37:08.101Z,2.42
2022-10-07T22:39:36.178Z,2.40
2022-10-07T22:42:04.440Z,2.67
2022-10-07T22:44:32.628Z,2.15
2022-10-07T22:47:02.196Z,3.05
2022-10-07T22:49:30.749Z,3.00
2022-10-07T22:51:59.844Z,3.60
2022-10-07T22:54:30.459Z,3.10
2022-10-07T22:56:58.535Z,3.30
2022-10-07T22:59:26.753Z,3.17
2022-10-07T23:01:54.870Z,2.88
2022-10-07T23:04:24.324Z,3.00
2022-10-07T23:06:52.974Z,3.03
2022-10-07T23:09:21.754Z,2.80
2022-10-07T23:11:49.890Z,2.40
2022-10-07T23:14:18.287Z,2.72
2022-10-07T23:16:46.406Z,3.63
2022-10-07T23:19:14.657Z,2.70
2022-10-07T23:21:44.633Z,2.83
2022-10-07T23:24:13.864Z,3.85
2022-10-07T23:26:43.282Z,2.60
2022-10-07T23:29:11.837Z,2.70
2022-10-07T23:31:40.337Z,2.13
2022-10-07T23:34:08.601Z,2.30
2022-10-07T23:36:36.801Z,3.15
2022-10-07T23:39:06.355Z,2.80
2022-10-07T23:41:34.695Z,2.60
2022-10-07T23:44:04.127Z,2.60
2022-10-07T23:46:35.007Z,2.38
2022-10-07T23:49:04.334Z,2.13
2022-10-07T23:51:33.665Z,2.50
2022-10-07T23:54:03.695Z,2.50
2022-10-07T23:56:33.554Z,2.40
2022-10-07T23:59:02.458Z,2.17
